This is the latest recevied weather packets stored in our database for station/object KI4MRC. If no packets are shown the sender has not sent any weather packets the latest 10 day(s).
| Time | Temp. | Humidity | Pressure | Rain* | Wind** | Luminosity | Snow |
|---|---|---|---|---|---|---|---|
| 1777603772 | 23.89° C | 74% | 1012 hPa | 0 mm | - | 0 W/m² | - |
| 1777603468 | 23.89° C | 74% | 1012.1 hPa | 0 mm | - | 0 W/m² | - |
| 1777603164 | 23.89° C | 75% | 1012 hPa | 0 mm | - | 0 W/m² | - |
| 1777602860 | 24.44° C | 76% | 1012.3 hPa | 0 mm | - | 0 W/m² | - |
| 1777602555 | 24.44° C | 77% | 1012.2 hPa | 0 mm | - | 0 W/m² | - |
| 1777602251 | 24.44° C | 79% | 1012.1 hPa | 0 mm | - | 0 W/m² | - |
| 1777601947 | 24.44° C | 80% | 1012.1 hPa | 0 mm | - | 0 W/m² | - |
| 1777601646 | 23.89° C | 82% | 1012.2 hPa | 0 mm | - | 0 W/m² | - |
| 1777601342 | 23.89° C | 83% | 1012.1 hPa | 0 mm | - | 0 W/m² | - |
| 1777601039 | 23.89° C | 83% | 1011.9 hPa | 0 mm | - | 0 W/m² | - |
| 1777600432 | 24.44° C | 81% | 1011.8 hPa | 0 mm | - | 0 W/m² | - |
| 1777585570 | 31.11° C | 60% | 1009.5 hPa | 0 mm | - | 70 W/m² | - |
| 1777584960 | 32.22° C | 50% | 1009.5 hPa | 0 mm | - | 58 W/m² | - |
| 1777584658 | 32.22° C | 48% | 1009.5 hPa | 0 mm | - | 62 W/m² | - |
| 1777584350 | 32.22° C | 50% | 1009.5 hPa | 0 mm | - | 93 W/m² | - |
| 1777584046 | 32.22° C | 47% | 1009.4 hPa | 0 mm | - | 95 W/m² | - |
| 1777583746 | 32.22° C | 50% | 1009.5 hPa | 0 mm | - | 103 W/m² | - |
| 1777583445 | 31.67° C | 49% | 1009.6 hPa | 0 mm | - | 88 W/m² | - |
| 1777582538 | 32.78° C | 49% | 1009.5 hPa | 0 mm | - | 93 W/m² | - |
| 1777582232 | 32.22° C | 51% | 1009.6 hPa | 0 mm | - | 102 W/m² | - |
| 1777581931 | 32.22° C | 48% | 1009.7 hPa | 0 mm | - | 114 W/m² | - |
| 1777580411 | 32.22° C | 48% | 1010 hPa | 0 mm | - | 102 W/m² | - |
| 1777580107 | 32.22° C | 49% | 1010 hPa | 0 mm | - | 106 W/m² | - |
| 1777579503 | 31.67° C | 51% | 1010.1 hPa | 0 mm | - | 105 W/m² | - |
| 1777579197 | 31.67° C | 49% | 1010.2 hPa | 0 mm | - | 98 W/m² | - |
* Rain latest hour (hover to see other rain measurements)
** Current wind speed in m/s (hover to see current wind gust speed)